Time;durP1;ratioP1;P1;durP2;ratioP2;P2;SDS_P1;SDS_P2;PMS_P1;PMS_P2;Temp;Humidity;BMP_temperature;BMP_pressure;BME280_temperature;BME280_humidity;BME280_pressure;Samples;Min_cycle;Max_cycle;Signal;HPM_P1;HPM_P2
2024/03/20 00:01:25;;;;;;;11.75;3.17;;;;;;;;;;5011969;28;20083;-66
2024/03/20 00:03:52;;;;;;;7.75;3.03;;;;;;;;;;5007058;28;20053;-66
2024/03/20 00:06:19;;;;;;;8.27;2.92;;;;;;;;;;5001529;28;20057;-66
2024/03/20 00:08:46;;;;;;;14.27;3.60;;;;;;;;;;5002415;28;20057;-66
2024/03/20 00:11:17;;;;;;;8.90;3.63;;;;;;;;;;5001018;28;20127;-66
2024/03/20 00:13:44;;;;;;;12.40;3.83;;;;;;;;;;4986023;28;20147;-66
2024/03/20 00:16:11;;;;;;;7.82;3.03;;;;;;;;;;4992282;28;20100;-66
2024/03/20 00:18:38;;;;;;;9.93;2.95;;;;;;;;;;5012212;28;20069;-66
2024/03/20 00:21:05;;;;;;;8.55;3.17;;;;;;;;;;5006484;28;20060;-67
2024/03/20 00:23:32;;;;;;;9.13;3.20;;;;;;;;;;5006764;28;20115;-66
2024/03/20 00:26:00;;;;;;;11.40;3.30;;;;;;;;;;4998484;28;20144;-66
2024/03/20 00:28:28;;;;;;;9.02;3.08;;;;;;;;;;5008007;28;20054;-64
2024/03/20 00:30:54;;;;;;;10.20;3.50;;;;;;;;;;5004622;28;20119;-66
2024/03/20 00:33:21;;;;;;;10.45;3.13;;;;;;;;;;5022096;28;20049;-66
2024/03/20 00:35:48;;;;;;;7.85;3.05;;;;;;;;;;5001010;28;20057;-64
2024/03/20 00:38:15;;;;;;;8.55;3.40;;;;;;;;;;5006053;28;20049;-64
2024/03/20 00:40:42;;;;;;;9.70;3.60;;;;;;;;;;5005736;28;20061;-65
2024/03/20 00:43:08;;;;;;;7.40;3.00;;;;;;;;;;5008118;28;20072;-66
2024/03/20 00:45:37;;;;;;;8.27;2.88;;;;;;;;;;4996964;28;20061;-64
2024/03/20 00:48:04;;;;;;;7.90;2.72;;;;;;;;;;4980497;28;20069;-64
2024/03/20 00:50:30;;;;;;;8.10;2.90;;;;;;;;;;4988331;28;20069;-64
2024/03/20 00:52:57;;;;;;;9.38;2.83;;;;;;;;;;4984951;28;20049;-66
2024/03/20 00:55:25;;;;;;;12.73;5.38;;;;;;;;;;4981795;28;20061;-65
2024/03/20 00:57:51;;;;;;;12.73;5.95;;;;;;;;;;4997412;28;20049;-66
2024/03/20 01:00:18;;;;;;;13.70;5.03;;;;;;;;;;5017948;28;20033;-64
2024/03/20 01:02:46;;;;;;;14.73;4.22;;;;;;;;;;5006541;28;20068;-66
2024/03/20 01:05:14;;;;;;;6.43;2.90;;;;;;;;;;5004417;28;20053;-65
2024/03/20 01:07:41;;;;;;;11.68;4.47;;;;;;;;;;5008247;28;20057;-65
2024/03/20 01:10:09;;;;;;;11.40;4.30;;;;;;;;;;5002215;28;20155;-65
2024/03/20 01:12:36;;;;;;;9.77;3.88;;;;;;;;;;5003874;28;20054;-65
2024/03/20 01:15:02;;;;;;;13.85;3.45;;;;;;;;;;4994412;28;20065;-65
2024/03/20 01:17:33;;;;;;;8.43;2.92;;;;;;;;;;5010921;28;20153;-65
2024/03/20 01:20:03;;;;;;;8.50;2.85;;;;;;;;;;4987018;28;20054;-65
2024/03/20 01:22:33;;;;;;;12.20;3.85;;;;;;;;;;4984928;28;20065;-64
2024/03/20 01:24:59;;;;;;;9.88;3.10;;;;;;;;;;5010742;28;20066;-65
2024/03/20 01:27:26;;;;;;;8.15;3.15;;;;;;;;;;4976211;28;20121;-66
2024/03/20 01:29:52;;;;;;;9.05;3.13;;;;;;;;;;4976793;28;20058;-64
2024/03/20 01:32:19;;;;;;;9.27;3.30;;;;;;;;;;4986597;28;20115;-63
2024/03/20 01:34:46;;;;;;;8.27;3.10;;;;;;;;;;4983328;28;22887;-65
2024/03/20 01:37:14;;;;;;;7.68;2.95;;;;;;;;;;4987845;28;20077;-65
2024/03/20 01:39:41;;;;;;;11.07;2.85;;;;;;;;;;4986387;28;20066;-65
2024/03/20 01:42:08;;;;;;;10.07;3.00;;;;;;;;;;4984389;28;20058;-64
2024/03/20 01:44:35;;;;;;;8.80;3.17;;;;;;;;;;4987564;28;20593;-64
2024/03/20 01:47:02;;;;;;;7.72;2.78;;;;;;;;;;4985353;28;20440;-67
2024/03/20 01:49:30;;;;;;;5.63;2.55;;;;;;;;;;4984271;28;20061;-65
2024/03/20 01:51:56;;;;;;;7.78;2.70;;;;;;;;;;4980647;28;20136;-65
2024/03/20 01:54:25;;;;;;;9.63;2.58;;;;;;;;;;4987787;28;20053;-64
2024/03/20 01:56:53;;;;;;;7.53;2.85;;;;;;;;;;4997451;28;20072;-66
2024/03/20 01:59:19;;;;;;;7.82;2.30;;;;;;;;;;5008885;28;20053;-66
2024/03/20 02:01:46;;;;;;;8.02;2.70;;;;;;;;;;5028122;28;20060;-65
2024/03/20 02:04:13;;;;;;;7.30;2.70;;;;;;;;;;5001286;28;20045;-65
2024/03/20 02:06:40;;;;;;;6.57;2.38;;;;;;;;;;5024389;28;20137;-64
2024/03/20 02:09:07;;;;;;;7.75;2.60;;;;;;;;;;5005776;28;20133;-64
2024/03/20 02:11:35;;;;;;;5.18;2.20;;;;;;;;;;5004183;28;20061;-65
2024/03/20 02:14:02;;;;;;;8.63;2.67;;;;;;;;;;5001045;28;20177;-67
2024/03/20 02:16:30;;;;;;;15.75;6.50;;;;;;;;;;4992375;28;20053;-66
2024/03/20 02:18:57;;;;;;;19.52;8.60;;;;;;;;;;5005149;28;20062;-64
2024/03/20 02:21:25;;;;;;;17.13;6.95;;;;;;;;;;4984122;28;20058;-66
2024/03/20 02:23:53;;;;;;;;;;;;;;;;;;4983509;28;20060;-69
2024/03/20 02:26:20;;;;;;;14.50;6.43;;;;;;;;;;5028264;28;19925;-64
2024/03/20 02:28:47;;;;;;;11.60;3.92;;;;;;;;;;5003230;28;20104;-64
2024/03/20 02:31:14;;;;;;;12.02;4.30;;;;;;;;;;5005419;28;20085;-66
2024/03/20 02:33:41;;;;;;;7.68;3.60;;;;;;;;;;5004497;28;20054;-64
2024/03/20 02:36:08;;;;;;;9.93;3.20;;;;;;;;;;4998186;28;20062;-65
2024/03/20 02:38:38;;;;;;;6.22;2.63;;;;;;;;;;5006228;28;20294;-65
2024/03/20 02:41:06;;;;;;;8.63;2.70;;;;;;;;;;5039711;28;20057;-65
2024/03/20 02:43:32;;;;;;;6.80;2.80;;;;;;;;;;5003677;28;20057;-65
2024/03/20 02:45:59;;;;;;;8.02;2.95;;;;;;;;;;4996228;28;20079;-65
2024/03/20 02:48:25;;;;;;;15.98;4.10;;;;;;;;;;5006125;28;20061;-66
2024/03/20 02:50:52;;;;;;;11.75;4.40;;;;;;;;;;5006469;28;20060;-65
2024/03/20 02:53:19;;;;;;;10.75;3.38;;;;;;;;;;5003713;28;20068;-66
2024/03/20 02:55:47;;;;;;;11.43;3.03;;;;;;;;;;4995859;28;20146;-66
2024/03/20 02:58:14;;;;;;;9.57;2.80;;;;;;;;;;5005982;28;20243;-65
2024/03/20 03:00:41;;;;;;;6.53;2.30;;;;;;;;;;5004837;28;20070;-66
2024/03/20 03:03:08;;;;;;;9.50;2.45;;;;;;;;;;5011663;28;20045;-64
2024/03/20 03:05:36;;;;;;;7.03;2.30;;;;;;;;;;4962779;28;20069;-64
2024/03/20 03:08:04;;;;;;;9.15;2.67;;;;;;;;;;4999382;28;20640;-65
2024/03/20 03:10:32;;;;;;;6.95;2.63;;;;;;;;;;5006270;28;20081;-65
2024/03/20 03:13:00;;;;;;;6.25;2.65;;;;;;;;;;5009811;28;20061;-66
2024/03/20 03:15:26;;;;;;;9.73;2.88;;;;;;;;;;4999183;28;20057;-67
2024/03/20 03:17:55;;;;;;;8.00;3.15;;;;;;;;;;5002238;28;20057;-65
2024/03/20 03:20:23;;;;;;;7.68;3.08;;;;;;;;;;5036289;28;21395;-66
2024/03/20 03:22:50;;;;;;;9.48;3.08;;;;;;;;;;5007820;28;20057;-66
2024/03/20 03:25:20;;;;;;;7.05;3.30;;;;;;;;;;5002164;28;20152;-65
2024/03/20 03:27:48;;;;;;;6.70;2.92;;;;;;;;;;4997932;28;20050;-66
2024/03/20 03:30:16;;;;;;;7.30;2.70;;;;;;;;;;5007156;28;20131;-65
2024/03/20 03:32:43;;;;;;;;;;;;;;;;;;5040088;28;20300;-65
2024/03/20 03:35:11;;;;;;;5.97;2.17;;;;;;;;;;4998905;28;19929;-66
2024/03/20 03:37:38;;;;;;;6.78;2.50;;;;;;;;;;4984969;28;20140;-66
2024/03/20 03:40:10;;;;;;;9.45;2.30;;;;;;;;;;4985700;28;20064;-66
2024/03/20 03:42:38;;;;;;;6.78;2.50;;;;;;;;;;5019200;28;20077;-65
2024/03/20 03:45:06;;;;;;;11.75;2.83;;;;;;;;;;4995513;28;20048;-64
2024/03/20 03:47:35;;;;;;;9.98;2.80;;;;;;;;;;5039752;28;20411;-65
2024/03/20 03:50:03;;;;;;;;;;;;;;;;;;5008417;28;20145;-64
2024/03/20 03:52:30;;;;;;;20.63;8.73;;;;;;;;;;5008315;28;19929;-66
2024/03/20 03:54:56;;;;;;;38.72;16.55;;;;;;;;;;4987787;28;20050;-66
2024/03/20 03:57:23;;;;;;;16.80;7.40;;;;;;;;;;4989928;28;20129;-67
2024/03/20 03:59:50;;;;;;;6.55;3.25;;;;;;;;;;4978778;28;20108;-66
2024/03/20 04:02:17;;;;;;;6.55;2.50;;;;;;;;;;4991792;28;20057;-66
2024/03/20 04:04:45;;;;;;;4.05;2.00;;;;;;;;;;4994632;28;20045;-66
2024/03/20 04:07:12;;;;;;;6.25;2.53;;;;;;;;;;5008853;28;20053;-65
2024/03/20 04:09:39;;;;;;;6.32;2.22;;;;;;;;;;5006024;28;20077;-65
2024/03/20 04:12:06;;;;;;;7.95;2.60;;;;;;;;;;4999424;28;20077;-65
2024/03/20 04:14:33;;;;;;;6.03;2.05;;;;;;;;;;4997049;28;20148;-66
2024/03/20 04:17:01;;;;;;;7.30;2.38;;;;;;;;;;4992632;28;20159;-65
2024/03/20 04:19:28;;;;;;;5.90;2.38;;;;;;;;;;5000120;28;20045;-65
2024/03/20 04:21:58;;;;;;;7.32;2.33;;;;;;;;;;4986542;28;20197;-65
2024/03/20 04:24:24;;;;;;;6.70;1.90;;;;;;;;;;4995278;28;20050;-66
2024/03/20 04:26:51;;;;;;;9.45;2.20;;;;;;;;;;4990011;28;20174;-65
2024/03/20 04:29:18;;;;;;;9.45;2.60;;;;;;;;;;4987000;28;20086;-65
2024/03/20 04:31:45;;;;;;;7.70;2.28;;;;;;;;;;4981723;28;20481;-64
2024/03/20 04:34:11;;;;;;;6.95;2.30;;;;;;;;;;5013149;28;20064;-65
2024/03/20 04:36:38;;;;;;;9.07;2.30;;;;;;;;;;5005513;28;20236;-63
2024/03/20 04:39:07;;;;;;;8.35;2.47;;;;;;;;;;5005512;28;20071;-64
2024/03/20 04:41:33;;;;;;;;;;;;;;;;;;5004883;28;20045;-65
2024/03/20 04:44:00;;;;;;;8.30;2.33;;;;;;;;;;5035134;28;19936;-64
2024/03/20 04:46:27;;;;;;;6.38;2.22;;;;;;;;;;5009636;28;20139;-64
2024/03/20 04:48:56;;;;;;;6.15;2.53;;;;;;;;;;5009346;28;20045;-65
2024/03/20 04:51:22;;;;;;;4.63;2.38;;;;;;;;;;5012253;28;20176;-66
2024/03/20 04:53:49;;;;;;;6.43;2.42;;;;;;;;;;5007168;28;20057;-65
2024/03/20 04:56:18;;;;;;;8.43;3.15;;;;;;;;;;5012730;28;20049;-65
2024/03/20 04:58:44;;;;;;;7.72;3.05;;;;;;;;;;5010449;28;20138;-63
2024/03/20 05:01:11;;;;;;;10.48;2.70;;;;;;;;;;5012619;28;20076;-65
2024/03/20 05:03:38;;;;;;;9.52;3.00;;;;;;;;;;5004444;28;29162;-64
2024/03/20 05:06:05;;;;;;;11.43;2.72;;;;;;;;;;5009551;28;20061;-64
2024/03/20 05:08:32;;;;;;;7.28;2.60;;;;;;;;;;5012125;28;20072;-64
2024/03/20 05:10:59;;;;;;;9.25;3.03;;;;;;;;;;5010231;28;20152;-64
2024/03/20 05:13:27;;;;;;;5.93;2.35;;;;;;;;;;5009669;28;20092;-64
2024/03/20 05:15:54;;;;;;;9.02;2.72;;;;;;;;;;5007693;28;20152;-65
2024/03/20 05:18:20;;;;;;;8.38;2.83;;;;;;;;;;5013604;28;20174;-65
2024/03/20 05:20:47;;;;;;;5.75;2.50;;;;;;;;;;5046754;28;20099;-65
2024/03/20 05:23:13;;;;;;;9.95;3.42;;;;;;;;;;5044159;28;20057;-65
2024/03/20 05:25:40;;;;;;;6.57;2.58;;;;;;;;;;5010078;28;20081;-65
2024/03/20 05:28:06;;;;;;;7.15;2.70;;;;;;;;;;5008877;28;20054;-66
2024/03/20 05:30:34;;;;;;;10.60;2.80;;;;;;;;;;5013397;28;20076;-64
2024/03/20 05:33:00;;;;;;;6.70;2.92;;;;;;;;;;5012308;28;20088;-65
2024/03/20 05:35:27;;;;;;;8.38;2.90;;;;;;;;;;5008229;28;20065;-67
2024/03/20 05:37:52;;;;;;;9.57;2.78;;;;;;;;;;5002696;28;20053;-68
2024/03/20 05:40:19;;;;;;;8.30;2.85;;;;;;;;;;5042740;28;20053;-67
2024/03/20 05:42:45;;;;;;;10.38;3.42;;;;;;;;;;5043275;28;20056;-68
2024/03/20 05:45:12;;;;;;;9.52;3.25;;;;;;;;;;5007061;28;20057;-68
2024/03/20 05:47:39;;;;;;;6.32;2.72;;;;;;;;;;5006133;28;20061;-66
2024/03/20 05:50:09;;;;;;;9.02;3.40;;;;;;;;;;5001305;28;20128;-65
2024/03/20 05:52:35;;;;;;;7.90;2.95;;;;;;;;;;5007285;28;20096;-64
2024/03/20 05:55:02;;;;;;;7.97;2.80;;;;;;;;;;5040504;28;20243;-65
2024/03/20 05:57:28;;;;;;;12.35;3.35;;;;;;;;;;5039869;28;20056;-63
2024/03/20 05:59:54;;;;;;;11.25;3.40;;;;;;;;;;5009701;28;20711;-66
2024/03/20 06:02:21;;;;;;;7.55;3.22;;;;;;;;;;5011766;28;20064;-66
2024/03/20 06:04:49;;;;;;;8.07;3.00;;;;;;;;;;5033798;28;20045;-66
2024/03/20 06:07:16;;;;;;;7.80;2.90;;;;;;;;;;5008665;28;20115;-66
2024/03/20 06:09:42;;;;;;;9.20;3.70;;;;;;;;;;5002099;28;20072;-69
2024/03/20 06:12:10;;;;;;;7.25;3.35;;;;;;;;;;5007121;28;20057;-68
2024/03/20 06:14:36;;;;;;;8.13;3.17;;;;;;;;;;4999408;28;20053;-68
2024/03/20 06:17:04;;;;;;;8.07;3.80;;;;;;;;;;5006406;28;20061;-66
2024/03/20 06:19:30;;;;;;;7.65;2.97;;;;;;;;;;5043248;28;20060;-68
2024/03/20 06:21:58;;;;;;;7.53;3.15;;;;;;;;;;4998474;28;20058;-66
2024/03/20 06:24:24;;;;;;;10.20;3.80;;;;;;;;;;5001763;28;20053;-66
2024/03/20 06:26:51;;;;;;;8.50;3.22;;;;;;;;;;5006539;28;20170;-68
2024/03/20 06:29:17;;;;;;;9.80;3.42;;;;;;;;;;5005889;28;20069;-68
2024/03/20 06:31:43;;;;;;;8.02;3.30;;;;;;;;;;5006977;28;20088;-68
2024/03/20 06:34:11;;;;;;;8.00;3.35;;;;;;;;;;5032138;28;20195;-68
2024/03/20 06:36:38;;;;;;;6.65;3.28;;;;;;;;;;5006699;28;20103;-68
2024/03/20 06:39:09;;;;;;;12.13;3.03;;;;;;;;;;5006299;28;20071;-67
2024/03/20 06:41:41;;;;;;;9.77;3.72;;;;;;;;;;5008493;28;20064;-67
2024/03/20 06:44:08;;;;;;;8.82;3.63;;;;;;;;;;5005208;28;20057;-67
2024/03/20 06:46:34;;;;;;;9.18;3.90;;;;;;;;;;5009014;28;20111;-65
2024/03/20 06:49:03;;;;;;;10.77;4.07;;;;;;;;;;5007211;28;20096;-66
2024/03/20 06:51:35;;;;;;;;;;;;;;;;;;5012664;28;20057;-66
2024/03/20 06:54:09;;;;;;;11.27;4.15;;;;;;;;;;4992570;28;19936;-64
2024/03/20 06:56:36;;;;;;;10.05;4.43;;;;;;;;;;4990055;28;20062;-65
2024/03/20 06:59:04;;;;;;;11.35;4.55;;;;;;;;;;4989677;28;20117;-65
2024/03/20 07:01:29;;;;;;;12.35;4.75;;;;;;;;;;4987907;28;20049;-65
2024/03/20 07:03:56;;;;;;;11.80;4.63;;;;;;;;;;4988728;28;20269;-65
2024/03/20 07:06:22;;;;;;;10.25;4.90;;;;;;;;;;5041735;28;20067;-64
2024/03/20 07:08:48;;;;;;;13.13;5.35;;;;;;;;;;5012542;28;20057;-65
2024/03/20 07:11:14;;;;;;;11.18;5.38;;;;;;;;;;5011524;28;20049;-66
2024/03/20 07:13:42;;;;;;;10.20;5.10;;;;;;;;;;5000621;28;20058;-66
2024/03/20 07:16:10;;;;;;;12.57;4.97;;;;;;;;;;5008773;28;20053;-65
2024/03/20 07:18:38;;;;;;;16.08;5.55;;;;;;;;;;5012337;28;20060;-64
2024/03/20 07:21:04;;;;;;;15.23;6.00;;;;;;;;;;5013767;28;20054;-66
2024/03/20 07:23:30;;;;;;;19.35;5.97;;;;;;;;;;5005077;28;20061;-64
2024/03/20 07:25:56;;;;;;;22.95;5.97;;;;;;;;;;5038820;28;21009;-65
2024/03/20 07:28:23;;;;;;;13.95;6.20;;;;;;;;;;5013735;28;20065;-65
2024/03/20 07:30:50;;;;;;;19.83;7.50;;;;;;;;;;5014674;28;20056;-64
2024/03/20 07:33:18;;;;;;;21.38;7.28;;;;;;;;;;5009614;28;20111;-67
2024/03/20 07:35:47;;;;;;;22.52;7.28;;;;;;;;;;5009995;28;20061;-66
2024/03/20 07:38:16;;;;;;;16.85;7.03;;;;;;;;;;5009611;28;20053;-66
2024/03/20 07:40:42;;;;;;;19.52;6.97;;;;;;;;;;5013116;28;20057;-66
2024/03/20 07:43:09;;;;;;;16.63;7.55;;;;;;;;;;5020820;28;20272;-66
2024/03/20 07:45:36;;;;;;;21.00;9.05;;;;;;;;;;5001477;28;20065;-67
2024/03/20 07:48:05;;;;;;;39.15;17.25;;;;;;;;;;5019785;28;20054;-65
2024/03/20 07:50:31;;;;;;;32.90;14.13;;;;;;;;;;4995037;28;20076;-65
2024/03/20 07:52:58;;;;;;;20.15;9.13;;;;;;;;;;4994941;28;20058;-65
2024/03/20 07:55:24;;;;;;;23.17;9.15;;;;;;;;;;5005167;28;20072;-67
2024/03/20 07:57:54;;;;;;;20.13;9.00;;;;;;;;;;5013718;28;20061;-65
2024/03/20 08:00:28;;;;;;;22.38;9.13;;;;;;;;;;5016194;28;20068;-66
2024/03/20 08:02:55;;;;;;;24.05;9.15;;;;;;;;;;5010682;28;20112;-66
2024/03/20 08:05:25;;;;;;;25.97;12.80;;;;;;;;;;5012592;28;20049;-67
2024/03/20 08:07:52;;;;;;;29.80;12.05;;;;;;;;;;5009240;28;20076;-65
2024/03/20 08:10:19;;;;;;;18.08;8.50;;;;;;;;;;5011385;28;20058;-66
2024/03/20 08:12:46;;;;;;;25.60;7.35;;;;;;;;;;5027455;28;20049;-67
2024/03/20 08:15:12;;;;;;;16.60;7.05;;;;;;;;;;5005360;28;20425;-67
2024/03/20 08:17:39;;;;;;;18.08;7.15;;;;;;;;;;5005728;28;20053;-65
2024/03/20 08:20:09;;;;;;;18.75;7.15;;;;;;;;;;5011802;28;20061;-65
2024/03/20 08:22:37;;;;;;;14.70;6.97;;;;;;;;;;5012592;28;20069;-66
2024/03/20 08:25:04;;;;;;;17.65;7.47;;;;;;;;;;5006824;28;20050;-66
2024/03/20 08:27:31;;;;;;;17.98;7.38;;;;;;;;;;5012413;28;20101;-66
2024/03/20 08:29:58;;;;;;;18.45;6.90;;;;;;;;;;5008180;28;20229;-66
2024/03/20 08:32:24;;;;;;;16.55;6.70;;;;;;;;;;5011521;28;20060;-65
2024/03/20 08:34:50;;;;;;;20.40;7.03;;;;;;;;;;4997125;28;20139;-64
2024/03/20 08:37:17;;;;;;;18.70;7.57;;;;;;;;;;4996370;28;20045;-66
2024/03/20 08:39:44;;;;;;;24.00;7.18;;;;;;;;;;4985903;28;20145;-67
2024/03/20 08:42:11;;;;;;;19.10;8.50;;;;;;;;;;4992512;28;20369;-66
2024/03/20 08:44:36;;;;;;;20.30;8.98;;;;;;;;;;4994649;28;20152;-65
2024/03/20 08:47:03;;;;;;;21.88;8.80;;;;;;;;;;5016317;28;20157;-68
2024/03/20 08:49:37;;;;;;;23.77;10.15;;;;;;;;;;5012932;28;20061;-64
2024/03/20 08:52:06;;;;;;;24.02;10.30;;;;;;;;;;5006874;28;20061;-66
2024/03/20 08:54:34;;;;;;;23.33;11.23;;;;;;;;;;4998975;28;20058;-66
2024/03/20 08:57:03;;;;;;;20.67;8.90;;;;;;;;;;4990554;28;20108;-65
2024/03/20 08:59:30;;;;;;;18.98;8.75;;;;;;;;;;4995725;28;20070;-65
2024/03/20 09:01:57;;;;;;;20.10;9.02;;;;;;;;;;4985236;28;20235;-65
2024/03/20 09:04:23;;;;;;;24.77;9.50;;;;;;;;;;5000146;28;20061;-66
2024/03/20 09:06:55;;;;;;;;;;;;;;;;;;5045293;28;20057;-66
2024/03/20 09:09:21;;;;;;;22.63;7.60;;;;;;;;;;5010835;28;19929;-67
2024/03/20 09:11:51;;;;;;;23.63;10.25;;;;;;;;;;5012744;28;20049;-65
2024/03/20 09:14:18;;;;;;;26.02;10.32;;;;;;;;;;5007539;28;20053;-66
2024/03/20 09:16:49;;;;;;;22.25;10.20;;;;;;;;;;5019816;28;20053;-64
2024/03/20 09:19:16;;;;;;;24.80;9.90;;;;;;;;;;5011747;28;20144;-66
2024/03/20 09:21:43;;;;;;;22.80;9.77;;;;;;;;;;5007423;28;20129;-66
2024/03/20 09:24:14;;;;;;;22.85;9.45;;;;;;;;;;5004741;28;20057;-66
2024/03/20 09:26:41;;;;;;;18.95;8.75;;;;;;;;;;5014541;28;20041;-65
2024/03/20 09:29:06;;;;;;;25.90;10.00;;;;;;;;;;5013221;28;20087;-65
2024/03/20 09:31:40;;;;;;;21.83;8.02;;;;;;;;;;5011024;28;20943;-64
2024/03/20 09:34:05;;;;;;;16.13;7.85;;;;;;;;;;5004326;28;20068;-64
2024/03/20 09:36:32;;;;;;;23.38;8.70;;;;;;;;;;5009221;28;20061;-66
2024/03/20 09:38:58;;;;;;;23.65;8.48;;;;;;;;;;5011809;28;20050;-64
2024/03/20 09:41:26;;;;;;;22.73;7.70;;;;;;;;;;5014928;28;20060;-64
2024/03/20 09:43:52;;;;;;;22.17;8.73;;;;;;;;;;5009303;28;20061;-66
2024/03/20 09:46:21;;;;;;;18.98;9.07;;;;;;;;;;5013528;28;20068;-64
2024/03/20 09:48:49;;;;;;;25.58;8.63;;;;;;;;;;5011416;28;20061;-66
2024/03/20 09:51:18;;;;;;;27.85;8.40;;;;;;;;;;5012624;28;20233;-65
2024/03/20 09:53:45;;;;;;;21.80;8.05;;;;;;;;;;4994152;28;20057;-67
2024/03/20 09:56:12;;;;;;;28.52;9.45;;;;;;;;;;4999819;28;20045;-65
2024/03/20 09:58:39;;;;;;;21.83;9.18;;;;;;;;;;5023498;28;20050;-66
2024/03/20 10:01:11;;;;;;;17.80;7.55;;;;;;;;;;4993714;28;20062;-64
2024/03/20 10:03:38;;;;;;;23.50;9.52;;;;;;;;;;4984823;28;21012;-64
2024/03/20 10:06:08;;;;;;;18.27;8.48;;;;;;;;;;4993775;28;20111;-64
2024/03/20 10:08:37;;;;;;;21.80;8.82;;;;;;;;;;5001274;28;20097;-64
2024/03/20 10:11:06;;;;;;;23.30;8.57;;;;;;;;;;5000335;28;20093;-65
2024/03/20 10:13:32;;;;;;;23.30;8.55;;;;;;;;;;4994529;28;20117;-65
2024/03/20 10:16:05;;;;;;;23.23;8.88;;;;;;;;;;4984410;28;20058;-64
2024/03/20 10:18:31;;;;;;;22.60;9.20;;;;;;;;;;4988801;28;20177;-68
2024/03/20 10:20:58;;;;;;;19.48;8.57;;;;;;;;;;4988739;28;20061;-66
2024/03/20 10:23:26;;;;;;;18.48;7.97;;;;;;;;;;4985922;28;20141;-65
2024/03/20 10:25:53;;;;;;;23.25;9.48;;;;;;;;;;5037601;28;20053;-64
2024/03/20 10:28:21;;;;;;;20.15;8.13;;;;;;;;;;5029057;28;20163;-66
2024/03/20 10:30:51;;;;;;;22.35;8.10;;;;;;;;;;5011209;28;20069;-65
2024/03/20 10:33:18;;;;;;;18.45;8.65;;;;;;;;;;5005005;28;20049;-65
2024/03/20 10:35:50;;;;;;;22.73;7.90;;;;;;;;;;5003916;28;20064;-67
2024/03/20 10:38:17;;;;;;;21.73;8.60;;;;;;;;;;5007434;28;20098;-64
2024/03/20 10:40:48;;;;;;;18.23;8.55;;;;;;;;;;5043750;28;20143;-65
2024/03/20 10:43:17;;;;;;;19.40;8.27;;;;;;;;;;5009351;28;20045;-64
2024/03/20 10:45:45;;;;;;;20.88;9.23;;;;;;;;;;5000461;28;20111;-66
2024/03/20 10:48:15;;;;;;;20.77;8.63;;;;;;;;;;5011377;28;20148;-64
2024/03/20 10:50:43;;;;;;;26.02;8.85;;;;;;;;;;5007909;28;20065;-66
2024/03/20 10:53:09;;;;;;;18.23;7.87;;;;;;;;;;5010205;28;20070;-66
2024/03/20 10:55:37;;;;;;;24.02;8.77;;;;;;;;;;5003431;28;20369;-64
2024/03/20 10:58:06;;;;;;;18.55;8.48;;;;;;;;;;5005340;28;22077;-65
2024/03/20 11:00:34;;;;;;;25.83;8.32;;;;;;;;;;5012049;28;20088;-67
2024/03/20 11:03:39;;;;;;;20.73;8.57;;;;;;;;;;5043344;28;20060;-67
2024/03/20 11:06:40;;;;;;;29.23;12.63;;;;;;;;;;4989629;28;20048;-66
2024/03/20 11:09:23;;;;;;;38.42;17.88;;;;;;;;;;4989095;28;20054;-63
2024/03/20 11:11:53;;;;;;;30.58;11.23;;;;;;;;;;4984520;28;20122;-65
2024/03/20 11:14:29;;;;;;;18.58;8.60;;;;;;;;;;4997509;28;20050;-66
2024/03/20 11:17:01;;;;;;;19.00;8.63;;;;;;;;;;5008481;28;20060;-66
2024/03/20 11:19:27;;;;;;;18.00;8.27;;;;;;;;;;5010694;28;20193;-66
2024/03/20 11:21:55;;;;;;;17.08;8.05;;;;;;;;;;5010428;28;20053;-65
2024/03/20 11:24:22;;;;;;;17.83;8.23;;;;;;;;;;5005839;28;20967;-67
2024/03/20 11:26:48;;;;;;;21.33;8.63;;;;;;;;;;5025265;28;20061;-64
2024/03/20 11:29:14;;;;;;;20.42;8.90;;;;;;;;;;5010210;28;20139;-64
2024/03/20 11:31:43;;;;;;;19.83;8.52;;;;;;;;;;5015134;28;20065;-66
2024/03/20 11:34:08;;;;;;;24.13;8.88;;;;;;;;;;5001113;28;20239;-67
2024/03/20 11:36:35;;;;;;;21.98;8.65;;;;;;;;;;5008608;28;20117;-67
2024/03/20 11:39:08;;;;;;;20.65;8.25;;;;;;;;;;5011178;28;20060;-65
2024/03/20 11:41:36;;;;;;;18.15;7.93;;;;;;;;;;5025677;28;20073;-66
2024/03/20 11:44:02;;;;;;;20.20;8.23;;;;;;;;;;5037821;28;20065;-66
2024/03/20 11:46:28;;;;;;;15.48;7.93;;;;;;;;;;5008917;28;20061;-66
2024/03/20 11:48:56;;;;;;;20.35;8.45;;;;;;;;;;5008871;28;20061;-65
2024/03/20 11:51:25;;;;;;;22.02;8.65;;;;;;;;;;5017783;28;20144;-67
2024/03/20 11:53:53;;;;;;;20.92;8.70;;;;;;;;;;4998083;28;20167;-65
2024/03/20 11:56:22;;;;;;;21.90;8.18;;;;;;;;;;5013076;28;20061;-65
2024/03/20 11:58:49;;;;;;;18.33;7.75;;;;;;;;;;5008461;28;20061;-66
2024/03/20 12:01:16;;;;;;;19.05;6.60;;;;;;;;;;5008721;28;20067;-67
2024/03/20 12:03:42;;;;;;;15.32;6.38;;;;;;;;;;5001144;28;20065;-65
2024/03/20 12:06:12;;;;;;;17.05;7.30;;;;;;;;;;5006491;28;20058;-65
2024/03/20 12:08:38;;;;;;;15.00;6.93;;;;;;;;;;5010394;28;20132;-66
2024/03/20 12:11:24;;;;;;;15.70;7.10;;;;;;;;;;5012801;28;20115;-65
2024/03/20 12:13:52;;;;;;;13.05;6.85;;;;;;;;;;5005935;28;20061;-67
2024/03/20 12:16:20;;;;;;;15.87;7.10;;;;;;;;;;5014414;28;20093;-65
2024/03/20 12:18:47;;;;;;;18.83;7.10;;;;;;;;;;5013389;28;20053;-66
2024/03/20 12:21:17;;;;;;;13.77;6.82;;;;;;;;;;5013208;28;20109;-65
2024/03/20 12:23:45;;;;;;;21.17;7.90;;;;;;;;;;5004036;28;20076;-67
2024/03/20 12:26:12;;;;;;;;;;;;;;;;;;5024227;28;20041;-64
2024/03/20 12:28:39;;;;;;;16.15;6.70;;;;;;;;;;5012242;28;19929;-66
2024/03/20 12:31:06;;;;;;;15.40;6.57;;;;;;;;;;5026732;28;20123;-66
2024/03/20 12:33:31;;;;;;;15.45;6.45;;;;;;;;;;5005718;28;20144;-67
2024/03/20 12:35:58;;;;;;;15.95;7.53;;;;;;;;;;5004571;28;20069;-67
2024/03/20 12:38:26;;;;;;;18.23;7.20;;;;;;;;;;5015199;28;20053;-67
2024/03/20 12:40:53;;;;;;;16.90;6.32;;;;;;;;;;5010896;28;20069;-66
2024/03/20 12:43:18;;;;;;;14.63;5.90;;;;;;;;;;5011186;28;20065;-66
2024/03/20 12:45:47;;;;;;;15.57;6.13;;;;;;;;;;5007670;28;20061;-66
2024/03/20 12:48:12;;;;;;;;;;;;;;;;;;5028136;28;20053;-66
2024/03/20 12:50:39;;;;;;;10.93;5.20;;;;;;;;;;5011104;28;19936;-66
2024/03/20 12:53:14;;;;;;;14.30;5.30;;;;;;;;;;5018452;28;20066;-67
2024/03/20 12:55:44;;;;;;;16.08;5.97;;;;;;;;;;5006050;28;20057;-65
2024/03/20 12:58:12;;;;;;;13.07;5.20;;;;;;;;;;5007178;28;20065;-64
2024/03/20 13:00:39;;;;;;;11.20;5.40;;;;;;;;;;5030694;28;20053;-67
2024/03/20 13:03:05;;;;;;;13.63;5.40;;;;;;;;;;5015920;28;20060;-65
2024/03/20 13:05:36;;;;;;;12.23;5.40;;;;;;;;;;5010354;28;20057;-65
2024/03/20 13:08:02;;;;;;;13.50;5.57;;;;;;;;;;5037778;28;20061;-66
2024/03/20 13:10:30;;;;;;;15.55;5.55;;;;;;;;;;5011796;28;20152;-65
2024/03/20 13:13:02;;;;;;;14.23;5.15;;;;;;;;;;5014895;28;20060;-67
2024/03/20 13:15:30;;;;;;;15.15;5.40;;;;;;;;;;5008010;28;20077;-66
2024/03/20 13:17:56;;;;;;;16.05;6.53;;;;;;;;;;5016654;28;20091;-67
2024/03/20 13:20:27;;;;;;;14.93;6.38;;;;;;;;;;5009454;28;20203;-66
2024/03/20 13:22:53;;;;;;;17.65;6.65;;;;;;;;;;5041969;28;20147;-66
2024/03/20 13:25:22;;;;;;;13.80;6.13;;;;;;;;;;5007190;28;20057;-66
2024/03/20 13:27:50;;;;;;;17.80;6.78;;;;;;;;;;5004266;28;20061;-66
2024/03/20 13:30:21;;;;;;;;;;;;;;;;;;5011311;28;20065;-65
2024/03/20 13:32:47;;;;;;;13.88;6.25;;;;;;;;;;5044971;28;19929;-64
2024/03/20 13:35:14;;;;;;;12.25;6.20;;;;;;;;;;5013136;28;20075;-65
2024/03/20 13:37:40;;;;;;;12.02;5.75;;;;;;;;;;5011430;28;20053;-65
2024/03/20 13:40:30;;;;;;;13.38;5.93;;;;;;;;;;5002642;28;20077;-66
2024/03/20 13:42:59;;;;;;;12.30;5.97;;;;;;;;;;5010498;28;20073;-66
2024/03/20 13:45:36;;;;;;;13.25;5.90;;;;;;;;;;4992477;28;20077;-68
2024/03/20 13:48:02;;;;;;;18.00;6.05;;;;;;;;;;4988480;28;20116;-66
2024/03/20 13:50:29;;;;;;;15.98;6.47;;;;;;;;;;4990142;28;20058;-65
2024/03/20 13:52:54;;;;;;;12.63;5.88;;;;;;;;;;4989033;28;20053;-66
2024/03/20 13:55:22;;;;;;;14.13;5.60;;;;;;;;;;5001416;28;20050;-66
2024/03/20 13:57:47;;;;;;;13.10;5.93;;;;;;;;;;4985928;28;20071;-65
2024/03/20 14:00:17;;;;;;;14.23;5.60;;;;;;;;;;4989931;28;20065;-66
2024/03/20 14:02:44;;;;;;;16.98;5.90;;;;;;;;;;5023397;28;20163;-67
2024/03/20 14:05:18;;;;;;;13.50;6.30;;;;;;;;;;5029003;28;20053;-67
2024/03/20 14:07:44;;;;;;;12.75;6.15;;;;;;;;;;5004396;28;20065;-66
2024/03/20 14:10:14;;;;;;;13.90;6.20;;;;;;;;;;5009768;28;21098;-64
2024/03/20 14:12:40;;;;;;;15.30;5.88;;;;;;;;;;5009444;28;20148;-67
2024/03/20 14:15:13;;;;;;;12.18;6.32;;;;;;;;;;5007369;28;20065;-65
2024/03/20 14:17:42;;;;;;;14.38;6.40;;;;;;;;;;5039203;28;20061;-66
2024/03/20 14:20:16;;;;;;;16.65;5.97;;;;;;;;;;5007285;28;20064;-67
2024/03/20 14:22:42;;;;;;;13.50;5.82;;;;;;;;;;5014974;28;20053;-65
2024/03/20 14:25:13;;;;;;;14.85;6.68;;;;;;;;;;5003986;28;20076;-66
2024/03/20 14:27:39;;;;;;;11.95;6.45;;;;;;;;;;5008558;28;20053;-65
2024/03/20 14:30:08;;;;;;;11.88;6.45;;;;;;;;;;5011061;28;20159;-64
2024/03/20 14:32:34;;;;;;;;;;;;;;;;;;5011585;28;20111;-66
2024/03/20 14:35:03;;;;;;;11.68;5.60;;;;;;;;;;5005886;28;19975;-65
2024/03/20 14:37:32;;;;;;;12.93;6.15;;;;;;;;;;5041690;28;20061;-65
2024/03/20 14:39:59;;;;;;;14.70;6.60;;;;;;;;;;5002492;28;20053;-65
2024/03/20 14:42:25;;;;;;;11.68;6.20;;;;;;;;;;5041355;28;20077;-64